RYR6QQ EGSS-LEAM
Flight info
| Callsign | RYR6QQ |
|---|---|
| Flight time | N/A |
| Altitude | 36000 |
| Route | NUGBO1R NUGBO M183 SILVA Q41 SAM N63 LELNA/N0440F350 DCT NOVAN DCT NENEM/N0436F370 P152 PPN N10 CJN L27 BLN N865 ESILA ESILA2Q |
| Aircraft | B738/M-SDE2E3FGHIRWXY/LB1 |
Departure
| Time | N/A |
|---|---|
| Airport | London Stansted Airport (EGSS) |
Arrival
| Time | 2026-04-15 22:17 |
|---|---|
| Airport | Almería Airport (LEAM) |
| Time | Latitude | Longitude | Altitude | Speed | Heading |
|---|---|---|---|---|---|
| 2026-04-15 20:37 | 46.25460 | -3.68406 | 37266 ft | 455 kts | 176° |
| 2026-04-15 20:38 | 46.22338 | -3.67586 | 37256 ft | 456 kts | 176° |
| 2026-04-15 20:38 | 46.16094 | -3.65917 | 37261 ft | 457 kts | 176° |
| 2026-04-15 20:39 | 46.09832 | -3.64298 | 37249 ft | 457 kts | 176° |
| 2026-04-15 20:39 | 46.03603 | -3.62733 | 37262 ft | 457 kts | 176° |
| 2026-04-15 20:40 | 45.97332 | -3.61174 | 37262 ft | 458 kts | 176° |
| 2026-04-15 20:40 | 45.91041 | -3.59615 | 37245 ft | 459 kts | 176° |
| 2026-04-15 20:41 | 45.84749 | -3.58057 | 37261 ft | 459 kts | 176° |
| 2026-04-15 20:41 | 45.78492 | -3.56511 | 37274 ft | 459 kts | 176° |
| 2026-04-15 20:42 | 45.72190 | -3.54957 | 37265 ft | 460 kts | 176° |
| 2026-04-15 20:42 | 45.65881 | -3.53405 | 37274 ft | 460 kts | 176° |
| 2026-04-15 20:43 | 45.59568 | -3.51855 | 37281 ft | 460 kts | 176° |
| 2026-04-15 20:43 | 45.53253 | -3.50309 | 37282 ft | 461 kts | 176° |
| 2026-04-15 20:44 | 45.46975 | -3.48775 | 37275 ft | 461 kts | 176° |
| 2026-04-15 20:44 | 45.40659 | -3.47235 | 37280 ft | 460 kts | 176° |
| 2026-04-15 20:45 | 45.34344 | -3.45698 | 37279 ft | 460 kts | 176° |
| 2026-04-15 20:45 | 45.28041 | -3.44157 | 37275 ft | 460 kts | 175° |
| 2026-04-15 20:46 | 45.21734 | -3.42625 | 37287 ft | 459 kts | 176° |
| 2026-04-15 20:46 | 45.15479 | -3.41118 | 37284 ft | 459 kts | 176° |
| 2026-04-15 20:47 | 45.09184 | -3.39604 | 37283 ft | 458 kts | 175° |
| 2026-04-15 20:47 | 45.02891 | -3.38092 | 37285 ft | 458 kts | 176° |
| 2026-04-15 20:48 | 44.96644 | -3.36594 | 37295 ft | 458 kts | 175° |
| 2026-04-15 20:48 | 44.90353 | -3.35088 | 37284 ft | 458 kts | 175° |
| 2026-04-15 20:49 | 44.84067 | -3.33587 | 37296 ft | 458 kts | 175° |
| 2026-04-15 20:49 | 44.77778 | -3.32089 | 37295 ft | 459 kts | 175° |
| 2026-04-15 20:50 | 44.71523 | -3.30602 | 37299 ft | 459 kts | 175° |
| 2026-04-15 20:50 | 44.65223 | -3.29106 | 37298 ft | 459 kts | 175° |
| 2026-04-15 20:51 | 44.58919 | -3.27613 | 37294 ft | 460 kts | 175° |
| 2026-04-15 20:51 | 44.52613 | -3.26121 | 37273 ft | 459 kts | 175° |
| 2026-04-15 20:52 | 44.46351 | -3.24644 | 37302 ft | 459 kts | 175° |
| 2026-04-15 20:52 | 44.40045 | -3.23161 | 37301 ft | 460 kts | 175° |
| 2026-04-15 20:53 | 44.33733 | -3.21679 | 37287 ft | 460 kts | 175° |
| 2026-04-15 20:53 | 44.27423 | -3.20200 | 37298 ft | 460 kts | 175° |
| 2026-04-15 20:54 | 44.21109 | -3.18725 | 37302 ft | 460 kts | 175° |
| 2026-04-15 20:54 | 44.14832 | -3.17263 | 37294 ft | 460 kts | 175° |
| 2026-04-15 20:55 | 44.08523 | -3.15718 | 37294 ft | 463 kts | 170° |
| 2026-04-15 20:55 | 44.02557 | -3.12149 | 37304 ft | 473 kts | 150° |
| 2026-04-15 20:56 | 43.97346 | -3.06483 | 37287 ft | 477 kts | 143° |
| 2026-04-15 20:56 | 43.92283 | -3.00629 | 37308 ft | 476 kts | 143° |
| 2026-04-15 20:57 | 43.87151 | -2.94820 | 37296 ft | 476 kts | 144° |
| 2026-04-15 20:57 | 43.81999 | -2.89063 | 37300 ft | 475 kts | 144° |
| 2026-04-15 20:58 | 43.76850 | -2.83321 | 37292 ft | 475 kts | 144° |
| 2026-04-15 20:58 | 43.71716 | -2.77579 | 37301 ft | 475 kts | 143° |
| 2026-04-15 20:59 | 43.66667 | -2.71803 | 37301 ft | 474 kts | 143° |
| 2026-04-15 20:59 | 43.61541 | -2.66081 | 37299 ft | 473 kts | 144° |
| 2026-04-15 21:00 | 43.56395 | -2.60426 | 37292 ft | 473 kts | 144° |
| 2026-04-15 21:00 | 43.51255 | -2.54777 | 37304 ft | 472 kts | 144° |
| 2026-04-15 21:01 | 43.46119 | -2.49128 | 37306 ft | 472 kts | 144° |
| 2026-04-15 21:01 | 43.41017 | -2.43523 | 37301 ft | 473 kts | 144° |
| 2026-04-15 21:02 | 43.35879 | -2.37891 | 37299 ft | 472 kts | 144° |
| 2026-04-15 21:02 | 43.30722 | -2.32253 | 37306 ft | 472 kts | 144° |
| 2026-04-15 21:03 | 43.25613 | -2.26679 | 37302 ft | 473 kts | 144° |
| 2026-04-15 21:03 | 43.20459 | -2.21063 | 37301 ft | 473 kts | 144° |
| 2026-04-15 21:04 | 43.15294 | -2.15453 | 37303 ft | 474 kts | 144° |
| 2026-04-15 21:04 | 43.09885 | -2.10376 | 37304 ft | 468 kts | 158° |
| 2026-04-15 21:05 | 43.03829 | -2.07634 | 37300 ft | 459 kts | 173° |
| 2026-04-15 21:05 | 42.97556 | -2.05950 | 37276 ft | 459 kts | 174° |
| 2026-04-15 21:06 | 42.91283 | -2.04255 | 37288 ft | 460 kts | 173° |
| 2026-04-15 21:06 | 42.85018 | -2.02509 | 37292 ft | 460 kts | 173° |
| 2026-04-15 21:07 | 42.78784 | -2.00754 | 37280 ft | 461 kts | 173° |
| 2026-04-15 21:07 | 42.72499 | -1.98987 | 37274 ft | 461 kts | 173° |
| 2026-04-15 21:08 | 42.66223 | -1.97229 | 37259 ft | 461 kts | 173° |
| 2026-04-15 21:08 | 42.59956 | -1.95477 | 37257 ft | 461 kts | 173° |
| 2026-04-15 21:09 | 42.53676 | -1.93725 | 37248 ft | 460 kts | 173° |
| 2026-04-15 21:09 | 42.47449 | -1.91997 | 37240 ft | 459 kts | 175° |
| 2026-04-15 21:09 | 42.44303 | -1.91639 | 37238 ft | 449 kts | 188° |
| 2026-04-15 21:10 | 42.41247 | -1.92196 | 37248 ft | 440 kts | 199° |
| 2026-04-15 21:10 | 42.38375 | -1.93482 | 37220 ft | 430 kts | 211° |
| 2026-04-15 21:10 | 42.35725 | -1.95308 | 37261 ft | 427 kts | 213° |
| 2026-04-15 21:11 | 42.30420 | -1.98964 | 37250 ft | 428 kts | 212° |
| 2026-04-15 21:11 | 42.25103 | -2.02497 | 37248 ft | 429 kts | 212° |
| 2026-04-15 21:12 | 42.19751 | -2.06041 | 37247 ft | 429 kts | 212° |
| 2026-04-15 21:12 | 42.14395 | -2.09587 | 37258 ft | 429 kts | 212° |
| 2026-04-15 21:13 | 42.09031 | -2.13129 | 37239 ft | 429 kts | 212° |
| 2026-04-15 21:13 | 42.03668 | -2.16663 | 37249 ft | 429 kts | 212° |
| 2026-04-15 21:14 | 41.98335 | -2.20170 | 37259 ft | 430 kts | 212° |
| 2026-04-15 21:14 | 41.92969 | -2.23695 | 37256 ft | 429 kts | 212° |
| 2026-04-15 21:15 | 41.87604 | -2.27213 | 37252 ft | 429 kts | 212° |
| 2026-04-15 21:15 | 41.82240 | -2.30721 | 37249 ft | 429 kts | 212° |
| 2026-04-15 21:16 | 41.76913 | -2.34201 | 37254 ft | 429 kts | 212° |
| 2026-04-15 21:16 | 41.71556 | -2.37695 | 37244 ft | 428 kts | 212° |
| 2026-04-15 21:17 | 41.66211 | -2.41177 | 37241 ft | 427 kts | 212° |
| 2026-04-15 21:17 | 41.60871 | -2.44648 | 37248 ft | 427 kts | 212° |
| 2026-04-15 21:18 | 41.55533 | -2.48111 | 37243 ft | 426 kts | 212° |
| 2026-04-15 21:18 | 41.50203 | -2.51560 | 37234 ft | 425 kts | 212° |
| 2026-04-15 21:19 | 41.44908 | -2.54962 | 37235 ft | 425 kts | 211° |
| 2026-04-15 21:19 | 41.39583 | -2.58371 | 37237 ft | 424 kts | 212° |
| 2026-04-15 21:20 | 41.34178 | -2.61588 | 37231 ft | 431 kts | 202° |
| 2026-04-15 21:20 | 41.29209 | -2.62727 | 37223 ft | 443 kts | 188° |
| 2026-04-15 21:21 | 41.21973 | -2.62173 | 37234 ft | 450 kts | 181° |
| 2026-04-15 21:21 | 41.15726 | -2.61504 | 37237 ft | 450 kts | 182° |
| 2026-04-15 21:22 | 41.10532 | -2.61012 | 37220 ft | 450 kts | 182° |
| 2026-04-15 21:22 | 41.04284 | -2.60457 | 37224 ft | 450 kts | 182° |
| 2026-04-15 21:23 | 40.97020 | -2.59810 | 37234 ft | 451 kts | 182° |
| 2026-04-15 21:23 | 40.91816 | -2.59343 | 37224 ft | 451 kts | 182° |
| 2026-04-15 21:24 | 40.85551 | -2.58781 | 37215 ft | 451 kts | 183° |
| 2026-04-15 21:24 | 40.79295 | -2.58224 | 37216 ft | 451 kts | 183° |
| 2026-04-15 21:25 | 40.73038 | -2.57667 | 37228 ft | 450 kts | 183° |
| 2026-04-15 21:25 | 40.66839 | -2.57117 | 37217 ft | 449 kts | 183° |
| 2026-04-15 21:26 | 40.60598 | -2.56564 | 37220 ft | 449 kts | 183° |
| 2026-04-15 21:26 | 40.54370 | -2.56013 | 37225 ft | 449 kts | 183° |
| 2026-04-15 21:27 | 40.48140 | -2.55463 | 37209 ft | 448 kts | 183° |
| 2026-04-15 21:27 | 40.41926 | -2.54915 | 37206 ft | 447 kts | 183° |
| 2026-04-15 21:28 | 40.35879 | -2.55343 | 37225 ft | 430 kts | 200° |
| 2026-04-15 21:28 | 40.30321 | -2.57853 | 37222 ft | 421 kts | 208° |
| 2026-04-15 21:29 | 40.24865 | -2.60661 | 37214 ft | 422 kts | 208° |
| 2026-04-15 21:29 | 40.19379 | -2.63441 | 37212 ft | 422 kts | 208° |
| 2026-04-15 21:30 | 40.13919 | -2.66178 | 37212 ft | 424 kts | 208° |
| 2026-04-15 21:30 | 40.08410 | -2.68929 | 37227 ft | 424 kts | 208° |
| 2026-04-15 21:31 | 40.00119 | -2.73061 | 37219 ft | 426 kts | 208° |
| 2026-04-15 21:32 | 39.91839 | -2.77176 | 37216 ft | 427 kts | 207° |
| 2026-04-15 21:32 | 39.86287 | -2.79930 | 37216 ft | 428 kts | 207° |
| 2026-04-15 21:33 | 39.80720 | -2.82687 | 37212 ft | 428 kts | 207° |
| 2026-04-15 21:33 | 39.75146 | -2.85442 | 37201 ft | 429 kts | 207° |
| 2026-04-15 21:34 | 39.69567 | -2.88191 | 37213 ft | 429 kts | 207° |
| 2026-04-15 21:34 | 39.64021 | -2.90927 | 37212 ft | 429 kts | 207° |
| 2026-04-15 21:35 | 39.58432 | -2.93676 | 37215 ft | 430 kts | 207° |
| 2026-04-15 21:35 | 39.52841 | -2.96431 | 37196 ft | 430 kts | 207° |
| 2026-04-15 21:36 | 39.47248 | -2.99186 | 37208 ft | 430 kts | 206° |
| 2026-04-15 21:36 | 39.41701 | -3.01914 | 37213 ft | 429 kts | 206° |
| 2026-04-15 21:37 | 39.36113 | -3.04644 | 37214 ft | 430 kts | 206° |
| 2026-04-15 21:37 | 39.30520 | -3.07356 | 37194 ft | 429 kts | 206° |
| 2026-04-15 21:38 | 39.24929 | -3.10063 | 37212 ft | 429 kts | 206° |
| 2026-04-15 21:38 | 39.19382 | -3.12748 | 37216 ft | 429 kts | 206° |
| 2026-04-15 21:39 | 39.13798 | -3.15447 | 37216 ft | 429 kts | 206° |
| 2026-04-15 21:39 | 39.08217 | -3.18141 | 37219 ft | 428 kts | 206° |
| 2026-04-15 21:40 | 39.02632 | -3.20831 | 37224 ft | 428 kts | 206° |
| 2026-04-15 21:40 | 38.97086 | -3.23500 | 37216 ft | 429 kts | 206° |
| 2026-04-15 21:41 | 38.91498 | -3.26193 | 37221 ft | 429 kts | 206° |
| 2026-04-15 21:41 | 38.85908 | -3.28885 | 37218 ft | 429 kts | 206° |
| 2026-04-15 21:42 | 38.80310 | -3.31572 | 37213 ft | 429 kts | 205° |
| 2026-04-15 21:42 | 38.74712 | -3.34255 | 37217 ft | 430 kts | 205° |
| 2026-04-15 21:43 | 38.69145 | -3.36923 | 37226 ft | 430 kts | 206° |
| 2026-04-15 21:43 | 38.63536 | -3.39607 | 37225 ft | 431 kts | 205° |
| 2026-04-15 21:44 | 38.57919 | -3.42290 | 37206 ft | 431 kts | 205° |
| 2026-04-15 21:44 | 38.52296 | -3.44971 | 37225 ft | 432 kts | 205° |
| 2026-04-15 21:45 | 38.46684 | -3.47641 | 37220 ft | 433 kts | 205° |
| 2026-04-15 21:45 | 38.41034 | -3.50326 | 37215 ft | 434 kts | 205° |
| 2026-04-15 21:46 | 38.35382 | -3.53007 | 37210 ft | 433 kts | 205° |
| 2026-04-15 21:46 | 38.29747 | -3.55675 | 37211 ft | 429 kts | 205° |
| 2026-04-15 21:47 | 38.24181 | -3.58307 | 36758 ft | 427 kts | 205° |
| 2026-04-15 21:47 | 38.21451 | -3.59596 | 36443 ft | 421 kts | 205° |
| 2026-04-15 21:47 | 38.18717 | -3.60884 | 36064 ft | 418 kts | 205° |
| 2026-04-15 21:47 | 38.15955 | -3.62023 | 35669 ft | 419 kts | 198° |
| 2026-04-15 21:48 | 38.13077 | -3.62608 | 35288 ft | 421 kts | 188° |
| 2026-04-15 21:48 | 38.10150 | -3.62679 | 34950 ft | 420 kts | 185° |
| 2026-04-15 21:48 | 38.07229 | -3.62668 | 34590 ft | 418 kts | 184° |
| 2026-04-15 21:48 | 38.04332 | -3.62648 | 34227 ft | 415 kts | 185° |
| 2026-04-15 21:49 | 38.01454 | -3.62637 | 33822 ft | 413 kts | 185° |
| 2026-04-15 21:49 | 37.98593 | -3.62640 | 33429 ft | 410 kts | 185° |
| 2026-04-15 21:49 | 37.95789 | -3.62653 | 33058 ft | 407 kts | 185° |
| 2026-04-15 21:49 | 37.92968 | -3.62672 | 32698 ft | 404 kts | 185° |
| 2026-04-15 21:50 | 37.90162 | -3.62694 | 32352 ft | 401 kts | 185° |
| 2026-04-15 21:50 | 37.87382 | -3.62717 | 31987 ft | 399 kts | 185° |
| 2026-04-15 21:50 | 37.84616 | -3.62740 | 31652 ft | 396 kts | 185° |
| 2026-04-15 21:50 | 37.81867 | -3.62763 | 31308 ft | 394 kts | 185° |
| 2026-04-15 21:51 | 37.79136 | -3.62786 | 30973 ft | 392 kts | 185° |
| 2026-04-15 21:51 | 37.76418 | -3.62808 | 30638 ft | 390 kts | 185° |
| 2026-04-15 21:51 | 37.73708 | -3.62831 | 30307 ft | 388 kts | 185° |
| 2026-04-15 21:51 | 37.71053 | -3.62852 | 29920 ft | 386 kts | 185° |
| 2026-04-15 21:52 | 37.68373 | -3.62873 | 29543 ft | 384 kts | 185° |
| 2026-04-15 21:52 | 37.65714 | -3.63003 | 28883 ft | 383 kts | 192° |
| 2026-04-15 21:52 | 37.63099 | -3.63360 | 28732 ft | 377 kts | 185° |
| 2026-04-15 21:52 | 37.60479 | -3.63318 | 28450 ft | 374 kts | 181° |
| 2026-04-15 21:53 | 37.57892 | -3.63174 | 28177 ft | 371 kts | 181° |
| 2026-04-15 21:53 | 37.55324 | -3.63067 | 27860 ft | 367 kts | 182° |
| 2026-04-15 21:53 | 37.52780 | -3.63017 | 27524 ft | 365 kts | 183° |
| 2026-04-15 21:53 | 37.50250 | -3.63012 | 27180 ft | 363 kts | 184° |
| 2026-04-15 21:54 | 37.47767 | -3.63027 | 26846 ft | 361 kts | 184° |
| 2026-04-15 21:54 | 37.45264 | -3.63049 | 26517 ft | 359 kts | 184° |
| 2026-04-15 21:54 | 37.42774 | -3.63044 | 26193 ft | 359 kts | 179° |
| 2026-04-15 21:54 | 37.40358 | -3.62257 | 25819 ft | 364 kts | 154° |
| 2026-04-15 21:55 | 37.38342 | -3.60346 | 25533 ft | 364 kts | 133° |
| 2026-04-15 21:55 | 37.36946 | -3.57720 | 25222 ft | 361 kts | 117° |
| 2026-04-15 21:55 | 37.35817 | -3.54902 | 24893 ft | 361 kts | 115° |
| 2026-04-15 21:55 | 37.34725 | -3.52068 | 24572 ft | 360 kts | 115° |
| 2026-04-15 21:56 | 37.33634 | -3.49238 | 24247 ft | 360 kts | 115° |
| 2026-04-15 21:56 | 37.32545 | -3.46447 | 23916 ft | 360 kts | 115° |
| 2026-04-15 21:56 | 37.31429 | -3.43619 | 23512 ft | 361 kts | 115° |
| 2026-04-15 21:56 | 37.30308 | -3.40801 | 23175 ft | 359 kts | 115° |
| 2026-04-15 21:57 | 37.29190 | -3.38003 | 22826 ft | 357 kts | 115° |
| 2026-04-15 21:57 | 37.28082 | -3.35234 | 22516 ft | 354 kts | 115° |
| 2026-04-15 21:57 | 37.26975 | -3.32473 | 22185 ft | 353 kts | 115° |
| 2026-04-15 21:57 | 37.25873 | -3.29729 | 21858 ft | 351 kts | 115° |
| 2026-04-15 21:58 | 37.24793 | -3.27036 | 21547 ft | 349 kts | 115° |
| 2026-04-15 21:58 | 37.23715 | -3.24314 | 21225 ft | 348 kts | 115° |
| 2026-04-15 21:58 | 37.22645 | -3.21599 | 20899 ft | 346 kts | 115° |
| 2026-04-15 21:58 | 37.21581 | -3.18898 | 20596 ft | 345 kts | 115° |
| 2026-04-15 21:59 | 37.20520 | -3.16206 | 20274 ft | 344 kts | 115° |
| 2026-04-15 21:59 | 37.19462 | -3.13526 | 19956 ft | 342 kts | 115° |
| 2026-04-15 21:59 | 37.18407 | -3.10856 | 19643 ft | 341 kts | 114° |
| 2026-04-15 21:59 | 37.17353 | -3.08192 | 19324 ft | 340 kts | 114° |
| 2026-04-15 22:00 | 37.16303 | -3.05536 | 19006 ft | 340 kts | 113° |
| 2026-04-15 22:00 | 37.15282 | -3.02914 | 18680 ft | 340 kts | 113° |
| 2026-04-15 22:00 | 37.14235 | -3.00256 | 18332 ft | 339 kts | 113° |
| 2026-04-15 22:00 | 37.13184 | -2.97611 | 17978 ft | 338 kts | 114° |
| 2026-04-15 22:01 | 37.12135 | -2.94982 | 17642 ft | 336 kts | 114° |
| 2026-04-15 22:01 | 37.11092 | -2.92372 | 17315 ft | 334 kts | 114° |
| 2026-04-15 22:01 | 37.10053 | -2.89774 | 16987 ft | 333 kts | 114° |
| 2026-04-15 22:01 | 37.09018 | -2.87187 | 16664 ft | 332 kts | 114° |
| 2026-04-15 22:02 | 37.07986 | -2.84607 | 16345 ft | 331 kts | 114° |
| 2026-04-15 22:02 | 37.06957 | -2.82033 | 16003 ft | 329 kts | 114° |
| 2026-04-15 22:02 | 37.05952 | -2.79512 | 15707 ft | 327 kts | 114° |
| 2026-04-15 22:02 | 37.05208 | -2.76854 | 15369 ft | 322 kts | 94° |
| 2026-04-15 22:03 | 37.05183 | -2.74084 | 15111 ft | 315 kts | 84° |
| 2026-04-15 22:03 | 37.05325 | -2.71389 | 14940 ft | 308 kts | 83° |
| 2026-04-15 22:03 | 37.05487 | -2.68730 | 14671 ft | 305 kts | 83° |
| 2026-04-15 22:03 | 37.05646 | -2.66085 | 14364 ft | 304 kts | 83° |
| 2026-04-15 22:04 | 37.05794 | -2.63455 | 14112 ft | 302 kts | 83° |
| 2026-04-15 22:04 | 37.05934 | -2.60837 | 13811 ft | 300 kts | 83° |
| 2026-04-15 22:04 | 37.06066 | -2.58277 | 13493 ft | 299 kts | 83° |
| 2026-04-15 22:04 | 37.06196 | -2.55687 | 13173 ft | 297 kts | 84° |
| 2026-04-15 22:05 | 37.06322 | -2.53107 | 12872 ft | 296 kts | 84° |
| 2026-04-15 22:05 | 37.06447 | -2.50543 | 12565 ft | 294 kts | 84° |
| 2026-04-15 22:05 | 37.06571 | -2.47992 | 12271 ft | 293 kts | 84° |
| 2026-04-15 22:05 | 37.06694 | -2.45454 | 11968 ft | 292 kts | 84° |
| 2026-04-15 22:06 | 37.06816 | -2.42931 | 11685 ft | 290 kts | 84° |
| 2026-04-15 22:06 | 37.06934 | -2.40449 | 11394 ft | 288 kts | 84° |
| 2026-04-15 22:06 | 37.07051 | -2.37953 | 11126 ft | 286 kts | 84° |
| 2026-04-15 22:06 | 37.07165 | -2.35478 | 10904 ft | 282 kts | 84° |
| 2026-04-15 22:07 | 37.07277 | -2.33043 | 10691 ft | 279 kts | 84° |
| 2026-04-15 22:07 | 37.07388 | -2.30626 | 10425 ft | 278 kts | 84° |
| 2026-04-15 22:07 | 37.07498 | -2.28217 | 10167 ft | 276 kts | 84° |
| 2026-04-15 22:07 | 37.07607 | -2.25832 | 9952 ft | 272 kts | 84° |
| 2026-04-15 22:08 | 37.07714 | -2.23471 | 9657 ft | 272 kts | 85° |
| 2026-04-15 22:08 | 37.07819 | -2.21107 | 9351 ft | 271 kts | 85° |
| 2026-04-15 22:08 | 37.07923 | -2.18785 | 9071 ft | 270 kts | 85° |
| 2026-04-15 22:08 | 37.08027 | -2.16442 | 8840 ft | 267 kts | 85° |
| 2026-04-15 22:09 | 37.08106 | -2.14189 | 8791 ft | 251 kts | 90° |
| 2026-04-15 22:09 | 37.07617 | -2.12176 | 8622 ft | 239 kts | 122° |
| 2026-04-15 22:09 | 37.06473 | -2.10770 | 8483 ft | 226 kts | 147° |
| 2026-04-15 22:09 | 37.05054 | -2.10013 | 8173 ft | 222 kts | 167° |
| 2026-04-15 22:10 | 37.03479 | -2.09911 | 7447 ft | 236 kts | 186° |
| 2026-04-15 22:10 | 37.01813 | -2.10147 | 6773 ft | 246 kts | 186° |
| 2026-04-15 22:10 | 37.00077 | -2.10389 | 6042 ft | 255 kts | 186° |
| 2026-04-15 22:10 | 36.98318 | -2.10626 | 5327 ft | 260 kts | 186° |
| 2026-04-15 22:11 | 36.96522 | -2.10863 | 4599 ft | 259 kts | 186° |
| 2026-04-15 22:11 | 36.94819 | -2.11314 | 4226 ft | 241 kts | 213° |
| 2026-04-15 22:11 | 36.93754 | -2.12758 | 4212 ft | 211 kts | 233° |
| 2026-04-15 22:11 | 36.92694 | -2.13872 | 3989 ft | 196 kts | 204° |
| 2026-04-15 22:12 | 36.91420 | -2.13989 | 3783 ft | 184 kts | 171° |
| 2026-04-15 22:12 | 36.90182 | -2.14072 | 3468 ft | 175 kts | 212° |
| 2026-04-15 22:12 | 36.89518 | -2.15276 | 3358 ft | 174 kts | 256° |
| 2026-04-15 22:12 | 36.89224 | -2.16759 | 3131 ft | 176 kts | 255° |
| 2026-04-15 22:13 | 36.88899 | -2.18214 | 2941 ft | 170 kts | 254° |
| 2026-04-15 22:13 | 36.88583 | -2.19607 | 2889 ft | 170 kts | 254° |
| 2026-04-15 22:13 | 36.88260 | -2.21020 | 2730 ft | 166 kts | 254° |
| 2026-04-15 22:13 | 36.87970 | -2.22366 | 2533 ft | 155 kts | 255° |
| 2026-04-15 22:14 | 36.87675 | -2.23645 | 2471 ft | 157 kts | 254° |
| 2026-04-15 22:14 | 36.87366 | -2.24916 | 2436 ft | 151 kts | 253° |
| 2026-04-15 22:14 | 36.87058 | -2.26170 | 2169 ft | 150 kts | 253° |
| 2026-04-15 22:14 | 36.86715 | -2.27403 | 1833 ft | 152 kts | 249° |
| 2026-04-15 22:15 | 36.86345 | -2.28633 | 1527 ft | 151 kts | 253° |
| 2026-04-15 22:15 | 36.86094 | -2.29877 | 1268 ft | 150 kts | 259° |
| 2026-04-15 22:15 | 36.85856 | -2.31158 | 978 ft | 153 kts | 256° |
| 2026-04-15 22:15 | 36.85550 | -2.32412 | 689 ft | 148 kts | 252° |
| 2026-04-15 22:16 | 36.85230 | -2.33626 | 432 ft | 145 kts | 253° |
| 2026-04-15 22:16 | 36.84932 | -2.34840 | 201 ft | 145 kts | 253° |
| 2026-04-15 22:16 | 36.84646 | -2.36002 | 60 ft | 132 kts | 252° |
| 2026-04-15 22:16 | 36.84422 | -2.36900 | 56 ft | 94 kts | 253° |
| 2026-04-15 22:17 | 36.84243 | -2.37640 | 63 ft | 83 kts | 252° |
| 2026-04-15 22:17 | 36.84110 | -2.38191 | 58 ft | 48 kts | 255° |
| 2026-04-15 22:17 | 36.84040 | -2.38476 | 57 ft | 2 kts | 252° |
| 2026-04-15 22:17 | 36.84031 | -2.38507 | 58 ft | 6 kts | 251° |
| 2026-04-15 22:18 | 36.84021 | -2.38558 | 60 ft | 6 kts | 257° |
| 2026-04-15 22:18 | 36.84014 | -2.38611 | 60 ft | 6 kts | 263° |
| 2026-04-15 22:18 | 36.84014 | -2.38664 | 61 ft | 6 kts | 273° |
| 2026-04-15 22:18 | 36.84021 | -2.38714 | 58 ft | 6 kts | 285° |
| 2026-04-15 22:19 | 36.84039 | -2.38759 | 58 ft | 6 kts | 310° |
| 2026-04-15 22:19 | 36.84073 | -2.38785 | 62 ft | 6 kts | 343° |
| 2026-04-15 22:19 | 36.84111 | -2.38779 | 61 ft | 6 kts | 22° |
| 2026-04-15 22:19 | 36.84140 | -2.38747 | 55 ft | 6 kts | 53° |
| 2026-04-15 22:20 | 36.84155 | -2.38702 | 60 ft | 6 kts | 71° |
| 2026-04-15 22:20 | 36.84166 | -2.38655 | 60 ft | 6 kts | 74° |
| 2026-04-15 22:20 | 36.84184 | -2.38579 | 59 ft | 13 kts | 73° |
| 2026-04-15 22:20 | 36.84211 | -2.38468 | 60 ft | 13 kts | 73° |
| 2026-04-15 22:21 | 36.84225 | -2.38413 | 61 ft | 6 kts | 73° |
| 2026-04-15 22:21 | 36.84238 | -2.38360 | 60 ft | 6 kts | 72° |
| 2026-04-15 22:21 | 36.84250 | -2.38309 | 61 ft | 6 kts | 74° |
| 2026-04-15 22:21 | 36.84262 | -2.38258 | 64 ft | 6 kts | 74° |
| 2026-04-15 22:22 | 36.84274 | -2.38208 | 64 ft | 6 kts | 74° |
| 2026-04-15 22:22 | 36.84286 | -2.38161 | 61 ft | 6 kts | 72° |
| 2026-04-15 22:22 | 36.84297 | -2.38112 | 60 ft | 6 kts | 77° |
| 2026-04-15 22:22 | 36.84310 | -2.38065 | 60 ft | 6 kts | 70° |
| 2026-04-15 22:23 | 36.84321 | -2.38019 | 65 ft | 6 kts | 73° |
| 2026-04-15 22:23 | 36.84334 | -2.37974 | 65 ft | 5 kts | 71° |
| 2026-04-15 22:23 | 36.84350 | -2.37932 | 64 ft | 5 kts | 53° |
| 2026-04-15 22:23 | 36.84382 | -2.37909 | 63 ft | 5 kts | 10° |
| 2026-04-15 22:24 | 36.84418 | -2.37915 | 62 ft | 5 kts | 346° |
| 2026-04-15 22:24 | 36.84453 | -2.37916 | 67 ft | 5 kts | 15° |
| 2026-04-15 22:24 | 36.84478 | -2.37887 | 63 ft | 5 kts | 64° |
| 2026-04-15 22:24 | 36.84489 | -2.37864 | 64 ft | 0 kts | 35° |
| 2026-04-15 22:25 | 36.84493 | -2.37864 | 65 ft | 1 kts | 9° |
| 2026-04-15 22:25 | 36.84508 | -2.37864 | 62 ft | 4 kts | 358° |
| 2026-04-15 22:25 | 36.84520 | -2.37866 | 66 ft | 1 kts | 350° |
| 2026-04-15 22:25 | 36.84528 | -2.37867 | 66 ft | 1 kts | 355° |
| 2026-04-15 22:26 | 36.84536 | -2.37863 | 67 ft | 1 kts | 28° |
| 2026-04-15 22:26 | 36.84542 | -2.37854 | 63 ft | 1 kts | 64° |
| 2026-04-15 22:26 | 36.84542 | -2.37849 | 63 ft | 0 kts | 84° |
| 2026-04-15 22:26 | 36.84542 | -2.37846 | 63 ft | 0 kts | 91° |